sensor_id;sensor_type;location;lat;lon;timestamp;temperature;humidity
52555;DHT22;38455;52.710;6.502;2023-05-27T00:00:05;9.50;99.90
52555;DHT22;38455;52.710;6.502;2023-05-27T00:02:32;9.40;99.90
52555;DHT22;38455;52.710;6.502;2023-05-27T00:04:57;9.30;99.90
52555;DHT22;38455;52.710;6.502;2023-05-27T00:07:23;9.20;99.90
52555;DHT22;38455;52.710;6.502;2023-05-27T00:09:49;9.30;99.90
52555;DHT22;38455;52.710;6.502;2023-05-27T00:12:15;9.20;99.90
52555;DHT22;38455;52.710;6.502;2023-05-27T00:14:40;9.20;99.90
52555;DHT22;38455;52.710;6.502;2023-05-27T00:17:06;9.20;99.90
52555;DHT22;38455;52.710;6.502;2023-05-27T00:19:34;9.20;99.90
52555;DHT22;38455;52.710;6.502;2023-05-27T00:22:00;9.10;99.90
52555;DHT22;38455;52.710;6.502;2023-05-27T00:24:25;9.00;99.90
52555;DHT22;38455;52.710;6.502;2023-05-27T00:26:51;9.00;99.90
52555;DHT22;38455;52.710;6.502;2023-05-27T00:29:17;9.00;99.90
52555;DHT22;38455;52.710;6.502;2023-05-27T00:31:43;9.00;99.90
52555;DHT22;38455;52.710;6.502;2023-05-27T00:34:08;8.80;99.90
52555;DHT22;38455;52.710;6.502;2023-05-27T00:36:34;8.90;99.90
52555;DHT22;38455;52.710;6.502;2023-05-27T00:39:01;8.90;99.90
52555;DHT22;38455;52.710;6.502;2023-05-27T00:41:27;8.90;99.90
52555;DHT22;38455;52.710;6.502;2023-05-27T00:43:56;8.80;99.90
52555;DHT22;38455;52.710;6.502;2023-05-27T00:46:21;8.80;99.90
52555;DHT22;38455;52.710;6.502;2023-05-27T00:48:47;8.80;99.90
52555;DHT22;38455;52.710;6.502;2023-05-27T00:51:14;8.80;99.90
52555;DHT22;38455;52.710;6.502;2023-05-27T00:53:40;8.70;99.90
52555;DHT22;38455;52.710;6.502;2023-05-27T00:56:11;8.70;99.90
52555;DHT22;38455;52.710;6.502;2023-05-27T00:58:38;8.70;99.90
52555;DHT22;38455;52.710;6.502;2023-05-27T01:01:04;8.60;99.90
52555;DHT22;38455;52.710;6.502;2023-05-27T01:03:30;8.70;99.90
52555;DHT22;38455;52.710;6.502;2023-05-27T01:06:14;8.70;99.90
52555;DHT22;38455;52.710;6.502;2023-05-27T01:08:48;8.60;99.90
52555;DHT22;38455;52.710;6.502;2023-05-27T01:11:21;8.60;99.90
52555;DHT22;38455;52.710;6.502;2023-05-27T01:13:59;8.60;99.90
52555;DHT22;38455;52.710;6.502;2023-05-27T01:16:26;8.60;99.90
52555;DHT22;38455;52.710;6.502;2023-05-27T01:18:54;8.50;99.90
52555;DHT22;38455;52.710;6.502;2023-05-27T01:21:22;8.50;99.90
52555;DHT22;38455;52.710;6.502;2023-05-27T01:23:51;8.50;99.90
52555;DHT22;38455;52.710;6.502;2023-05-27T01:26:17;8.50;99.90
52555;DHT22;38455;52.710;6.502;2023-05-27T01:28:43;8.40;99.90
52555;DHT22;38455;52.710;6.502;2023-05-27T01:31:53;8.40;99.90
52555;DHT22;38455;52.710;6.502;2023-05-27T01:34:25;8.40;99.90
52555;DHT22;38455;52.710;6.502;2023-05-27T01:36:56;8.40;99.90
52555;DHT22;38455;52.710;6.502;2023-05-27T01:39:24;8.40;99.90
52555;DHT22;38455;52.710;6.502;2023-05-27T01:41:52;8.40;99.90
52555;DHT22;38455;52.710;6.502;2023-05-27T01:44:18;8.30;99.90
52555;DHT22;38455;52.710;6.502;2023-05-27T01:46:44;8.30;99.90
52555;DHT22;38455;52.710;6.502;2023-05-27T01:49:10;8.30;99.90
52555;DHT22;38455;52.710;6.502;2023-05-27T01:51:36;8.30;99.90
52555;DHT22;38455;52.710;6.502;2023-05-27T01:54:02;8.30;99.90
52555;DHT22;38455;52.710;6.502;2023-05-27T01:56:28;8.30;99.90
52555;DHT22;38455;52.710;6.502;2023-05-27T01:58:55;8.30;99.90
52555;DHT22;38455;52.710;6.502;2023-05-27T02:01:20;8.30;99.90
52555;DHT22;38455;52.710;6.502;2023-05-27T02:03:47;8.30;99.90
52555;DHT22;38455;52.710;6.502;2023-05-27T02:06:13;8.20;99.90
52555;DHT22;38455;52.710;6.502;2023-05-27T02:08:39;8.20;99.90
52555;DHT22;38455;52.710;6.502;2023-05-27T02:11:04;8.10;99.90
52555;DHT22;38455;52.710;6.502;2023-05-27T02:13:31;8.20;99.90
52555;DHT22;38455;52.710;6.502;2023-05-27T02:15:56;8.10;99.90
52555;DHT22;38455;52.710;6.502;2023-05-27T02:18:22;8.10;99.90
52555;DHT22;38455;52.710;6.502;2023-05-27T02:20:47;8.10;99.90
52555;DHT22;38455;52.710;6.502;2023-05-27T02:23:13;8.10;99.90
52555;DHT22;38455;52.710;6.502;2023-05-27T02:25:39;8.10;99.90
52555;DHT22;38455;52.710;6.502;2023-05-27T02:28:04;8.00;99.90
52555;DHT22;38455;52.710;6.502;2023-05-27T02:30:30;8.00;99.90
52555;DHT22;38455;52.710;6.502;2023-05-27T02:32:57;7.90;99.90
52555;DHT22;38455;52.710;6.502;2023-05-27T02:35:22;8.00;99.90
52555;DHT22;38455;52.710;6.502;2023-05-27T02:37:48;7.90;99.90
52555;DHT22;38455;52.710;6.502;2023-05-27T02:40:27;8.00;99.90
52555;DHT22;38455;52.710;6.502;2023-05-27T02:42:53;8.00;99.90
52555;DHT22;38455;52.710;6.502;2023-05-27T02:45:18;7.90;99.90
52555;DHT22;38455;52.710;6.502;2023-05-27T02:47:44;7.90;99.90
52555;DHT22;38455;52.710;6.502;2023-05-27T02:50:10;7.90;99.90
52555;DHT22;38455;52.710;6.502;2023-05-27T02:52:35;7.90;99.90
52555;DHT22;38455;52.710;6.502;2023-05-27T02:55:01;7.90;99.90
52555;DHT22;38455;52.710;6.502;2023-05-27T02:57:27;8.00;99.90
52555;DHT22;38455;52.710;6.502;2023-05-27T02:59:53;7.90;99.90
52555;DHT22;38455;52.710;6.502;2023-05-27T03:02:18;7.90;99.90
52555;DHT22;38455;52.710;6.502;2023-05-27T03:04:44;7.90;99.90
52555;DHT22;38455;52.710;6.502;2023-05-27T03:07:10;7.90;99.90
52555;DHT22;38455;52.710;6.502;2023-05-27T03:09:35;7.90;99.90
52555;DHT22;38455;52.710;6.502;2023-05-27T03:12:01;7.90;99.90
52555;DHT22;38455;52.710;6.502;2023-05-27T03:14:27;8.00;99.90
52555;DHT22;38455;52.710;6.502;2023-05-27T03:16:53;8.10;99.90
52555;DHT22;38455;52.710;6.502;2023-05-27T03:19:20;8.30;99.90
52555;DHT22;38455;52.710;6.502;2023-05-27T03:21:46;8.20;99.90
52555;DHT22;38455;52.710;6.502;2023-05-27T03:24:12;8.30;99.90
52555;DHT22;38455;52.710;6.502;2023-05-27T03:26:38;8.40;99.90
52555;DHT22;38455;52.710;6.502;2023-05-27T03:29:04;8.50;99.90
52555;DHT22;38455;52.710;6.502;2023-05-27T03:31:30;8.50;99.90
52555;DHT22;38455;52.710;6.502;2023-05-27T03:33:55;8.50;99.90
52555;DHT22;38455;52.710;6.502;2023-05-27T03:36:21;8.60;99.90
52555;DHT22;38455;52.710;6.502;2023-05-27T03:38:46;8.60;99.90
52555;DHT22;38455;52.710;6.502;2023-05-27T03:41:12;8.60;99.90
52555;DHT22;38455;52.710;6.502;2023-05-27T03:43:38;8.60;99.90
52555;DHT22;38455;52.710;6.502;2023-05-27T03:46:03;8.60;99.90
52555;DHT22;38455;52.710;6.502;2023-05-27T03:48:29;8.60;99.90
52555;DHT22;38455;52.710;6.502;2023-05-27T03:50:55;8.60;99.90
52555;DHT22;38455;52.710;6.502;2023-05-27T03:53:20;8.60;99.90
52555;DHT22;38455;52.710;6.502;2023-05-27T03:55:46;8.70;99.90
52555;DHT22;38455;52.710;6.502;2023-05-27T03:58:12;8.70;99.90
52555;DHT22;38455;52.710;6.502;2023-05-27T04:00:39;8.70;99.90
52555;DHT22;38455;52.710;6.502;2023-05-27T04:03:05;8.70;99.90
52555;DHT22;38455;52.710;6.502;2023-05-27T04:05:31;8.80;99.90
52555;DHT22;38455;52.710;6.502;2023-05-27T04:07:56;8.90;99.90
52555;DHT22;38455;52.710;6.502;2023-05-27T04:10:22;8.80;99.90
52555;DHT22;38455;52.710;6.502;2023-05-27T04:12:48;8.90;99.90
52555;DHT22;38455;52.710;6.502;2023-05-27T04:15:13;8.90;99.90
52555;DHT22;38455;52.710;6.502;2023-05-27T04:17:39;9.00;99.90
52555;DHT22;38455;52.710;6.502;2023-05-27T04:20:05;9.10;99.90
52555;DHT22;38455;52.710;6.502;2023-05-27T04:22:39;9.10;99.90
52555;DHT22;38455;52.710;6.502;2023-05-27T04:25:05;9.20;99.90
52555;DHT22;38455;52.710;6.502;2023-05-27T04:27:31;9.20;99.90
52555;DHT22;38455;52.710;6.502;2023-05-27T04:29:56;9.30;99.90
52555;DHT22;38455;52.710;6.502;2023-05-27T04:32:23;9.50;99.90
52555;DHT22;38455;52.710;6.502;2023-05-27T04:34:49;9.60;99.90
52555;DHT22;38455;52.710;6.502;2023-05-27T04:37:15;9.60;99.90
52555;DHT22;38455;52.710;6.502;2023-05-27T04:39:42;9.70;99.90
52555;DHT22;38455;52.710;6.502;2023-05-27T04:42:11;9.80;99.90
52555;DHT22;38455;52.710;6.502;2023-05-27T04:44:37;10.10;99.90
52555;DHT22;38455;52.710;6.502;2023-05-27T04:47:04;10.60;99.90
52555;DHT22;38455;52.710;6.502;2023-05-27T04:49:30;11.20;99.90
52555;DHT22;38455;52.710;6.502;2023-05-27T04:51:57;11.50;99.90
52555;DHT22;38455;52.710;6.502;2023-05-27T04:54:23;11.90;99.90
52555;DHT22;38455;52.710;6.502;2023-05-27T04:56:49;12.20;99.90
52555;DHT22;38455;52.710;6.502;2023-05-27T04:59:17;12.40;99.90
52555;DHT22;38455;52.710;6.502;2023-05-27T05:01:45;12.80;99.90
52555;DHT22;38455;52.710;6.502;2023-05-27T05:04:25;13.00;99.90
52555;DHT22;38455;52.710;6.502;2023-05-27T05:06:50;13.20;99.90
52555;DHT22;38455;52.710;6.502;2023-05-27T05:09:17;13.50;99.90
52555;DHT22;38455;52.710;6.502;2023-05-27T05:11:43;13.90;99.90
52555;DHT22;38455;52.710;6.502;2023-05-27T05:14:08;14.00;99.90
52555;DHT22;38455;52.710;6.502;2023-05-27T05:16:34;14.00;99.90
52555;DHT22;38455;52.710;6.502;2023-05-27T05:19:00;14.20;99.90
52555;DHT22;38455;52.710;6.502;2023-05-27T05:21:25;14.30;99.90
52555;DHT22;38455;52.710;6.502;2023-05-27T05:23:51;14.30;99.90
52555;DHT22;38455;52.710;6.502;2023-05-27T05:26:20;14.60;99.90
52555;DHT22;38455;52.710;6.502;2023-05-27T05:28:46;14.80;99.90
52555;DHT22;38455;52.710;6.502;2023-05-27T05:31:11;15.00;99.90
52555;DHT22;38455;52.710;6.502;2023-05-27T05:33:37;15.40;99.90
52555;DHT22;38455;52.710;6.502;2023-05-27T05:36:03;15.80;99.90
52555;DHT22;38455;52.710;6.502;2023-05-27T05:38:29;16.00;99.90
52555;DHT22;38455;52.710;6.502;2023-05-27T05:40:56;16.40;99.90
52555;DHT22;38455;52.710;6.502;2023-05-27T05:43:21;16.60;99.90
52555;DHT22;38455;52.710;6.502;2023-05-27T05:45:47;16.50;99.90
52555;DHT22;38455;52.710;6.502;2023-05-27T05:48:13;16.90;99.90
52555;DHT22;38455;52.710;6.502;2023-05-27T05:50:38;17.00;99.90
52555;DHT22;38455;52.710;6.502;2023-05-27T05:53:04;16.90;99.90
52555;DHT22;38455;52.710;6.502;2023-05-27T05:55:29;17.00;99.90
52555;DHT22;38455;52.710;6.502;2023-05-27T05:57:55;17.10;99.90
52555;DHT22;38455;52.710;6.502;2023-05-27T06:00:21;17.40;99.90
52555;DHT22;38455;52.710;6.502;2023-05-27T06:02:47;17.70;99.90
52555;DHT22;38455;52.710;6.502;2023-05-27T06:05:13;17.60;99.90
52555;DHT22;38455;52.710;6.502;2023-05-27T06:07:39;17.50;99.90
52555;DHT22;38455;52.710;6.502;2023-05-27T06:10:05;17.60;99.90
52555;DHT22;38455;52.710;6.502;2023-05-27T06:12:30;17.50;99.90
52555;DHT22;38455;52.710;6.502;2023-05-27T06:14:56;16.80;99.90
52555;DHT22;38455;52.710;6.502;2023-05-27T06:17:22;16.20;99.90
52555;DHT22;38455;52.710;6.502;2023-05-27T06:19:47;15.80;99.90
52555;DHT22;38455;52.710;6.502;2023-05-27T06:22:13;16.00;99.90
52555;DHT22;38455;52.710;6.502;2023-05-27T06:24:38;16.30;99.90
52555;DHT22;38455;52.710;6.502;2023-05-27T06:27:04;16.90;99.90
52555;DHT22;38455;52.710;6.502;2023-05-27T06:29:30;17.10;99.90
52555;DHT22;38455;52.710;6.502;2023-05-27T06:31:55;17.20;99.90
52555;DHT22;38455;52.710;6.502;2023-05-27T06:34:21;17.30;99.90
52555;DHT22;38455;52.710;6.502;2023-05-27T06:36:46;17.70;99.90
52555;DHT22;38455;52.710;6.502;2023-05-27T06:39:14;18.40;99.90
52555;DHT22;38455;52.710;6.502;2023-05-27T06:41:40;18.10;99.90
52555;DHT22;38455;52.710;6.502;2023-05-27T06:44:06;18.50;99.90
52555;DHT22;38455;52.710;6.502;2023-05-27T06:46:32;19.00;99.90
52555;DHT22;38455;52.710;6.502;2023-05-27T06:48:58;19.20;99.90
52555;DHT22;38455;52.710;6.502;2023-05-27T06:51:23;19.30;99.90
52555;DHT22;38455;52.710;6.502;2023-05-27T06:53:49;19.60;99.90
52555;DHT22;38455;52.710;6.502;2023-05-27T06:56:15;19.80;99.90
52555;DHT22;38455;52.710;6.502;2023-05-27T06:58:40;19.70;99.30
52555;DHT22;38455;52.710;6.502;2023-05-27T07:01:06;19.80;99.10
52555;DHT22;38455;52.710;6.502;2023-05-27T07:03:33;19.80;98.40
52555;DHT22;38455;52.710;6.502;2023-05-27T07:05:58;20.30;98.40
52555;DHT22;38455;52.710;6.502;2023-05-27T07:08:24;20.30;97.90
52555;DHT22;38455;52.710;6.502;2023-05-27T07:10:49;20.60;97.40
52555;DHT22;38455;52.710;6.502;2023-05-27T07:13:15;20.50;97.00
52555;DHT22;38455;52.710;6.502;2023-05-27T07:15:41;21.10;96.50
52555;DHT22;38455;52.710;6.502;2023-05-27T07:18:07;21.20;95.70
52555;DHT22;38455;52.710;6.502;2023-05-27T07:20:33;21.30;95.00
52555;DHT22;38455;52.710;6.502;2023-05-27T07:23:00;21.60;94.70
52555;DHT22;38455;52.710;6.502;2023-05-27T07:25:26;21.60;94.50
52555;DHT22;38455;52.710;6.502;2023-05-27T07:27:51;22.10;93.70
52555;DHT22;38455;52.710;6.502;2023-05-27T07:30:17;22.10;93.30
52555;DHT22;38455;52.710;6.502;2023-05-27T07:32:43;22.10;92.60
52555;DHT22;38455;52.710;6.502;2023-05-27T07:35:08;22.20;92.30
52555;DHT22;38455;52.710;6.502;2023-05-27T07:37:34;22.40;91.90
52555;DHT22;38455;52.710;6.502;2023-05-27T07:40:00;22.40;91.40
52555;DHT22;38455;52.710;6.502;2023-05-27T07:42:25;22.40;91.40
52555;DHT22;38455;52.710;6.502;2023-05-27T07:44:51;23.00;90.80
52555;DHT22;38455;52.710;6.502;2023-05-27T07:47:17;23.20;90.40
52555;DHT22;38455;52.710;6.502;2023-05-27T07:49:42;22.90;89.20
52555;DHT22;38455;52.710;6.502;2023-05-27T07:52:08;23.50;88.80
52555;DHT22;38455;52.710;6.502;2023-05-27T07:54:33;23.70;86.40
52555;DHT22;38455;52.710;6.502;2023-05-27T07:56:59;23.70;86.80
52555;DHT22;38455;52.710;6.502;2023-05-27T07:59:25;23.70;85.60
52555;DHT22;38455;52.710;6.502;2023-05-27T08:01:50;23.60;85.30
52555;DHT22;38455;52.710;6.502;2023-05-27T08:04:16;23.90;85.20
52555;DHT22;38455;52.710;6.502;2023-05-27T08:06:42;24.10;84.80
52555;DHT22;38455;52.710;6.502;2023-05-27T08:09:08;23.70;83.30
52555;DHT22;38455;52.710;6.502;2023-05-27T08:11:34;23.60;82.60
52555;DHT22;38455;52.710;6.502;2023-05-27T08:14:00;24.00;83.10
52555;DHT22;38455;52.710;6.502;2023-05-27T08:16:25;24.20;82.80
52555;DHT22;38455;52.710;6.502;2023-05-27T08:18:51;24.70;82.50
52555;DHT22;38455;52.710;6.502;2023-05-27T08:21:17;24.20;80.40
52555;DHT22;38455;52.710;6.502;2023-05-27T08:23:42;24.30;79.60
52555;DHT22;38455;52.710;6.502;2023-05-27T08:26:08;24.10;79.10
52555;DHT22;38455;52.710;6.502;2023-05-27T08:28:34;24.40;79.40
52555;DHT22;38455;52.710;6.502;2023-05-27T08:31:03;24.80;79.40
52555;DHT22;38455;52.710;6.502;2023-05-27T08:33:29;25.20;79.70
52555;DHT22;38455;52.710;6.502;2023-05-27T08:35:56;24.90;77.70
52555;DHT22;38455;52.710;6.502;2023-05-27T08:38:21;25.00;76.60
52555;DHT22;38455;52.710;6.502;2023-05-27T08:40:48;25.00;76.00
52555;DHT22;38455;52.710;6.502;2023-05-27T08:43:13;25.00;74.80
52555;DHT22;38455;52.710;6.502;2023-05-27T08:45:40;25.10;75.60
52555;DHT22;38455;52.710;6.502;2023-05-27T08:48:09;25.00;75.40
52555;DHT22;38455;52.710;6.502;2023-05-27T08:50:36;25.50;75.40
52555;DHT22;38455;52.710;6.502;2023-05-27T08:53:03;25.80;73.80
52555;DHT22;38455;52.710;6.502;2023-05-27T08:55:30;26.20;73.80
52555;DHT22;38455;52.710;6.502;2023-05-27T08:57:57;26.10;72.90
52555;DHT22;38455;52.710;6.502;2023-05-27T09:00:25;25.50;73.40
52555;DHT22;38455;52.710;6.502;2023-05-27T09:02:51;25.80;73.10
52555;DHT22;38455;52.710;6.502;2023-05-27T09:05:18;26.10;73.20
52555;DHT22;38455;52.710;6.502;2023-05-27T09:07:46;26.90;72.10
52555;DHT22;38455;52.710;6.502;2023-05-27T09:10:11;26.50;71.30
52555;DHT22;38455;52.710;6.502;2023-05-27T09:12:37;26.20;70.90
52555;DHT22;38455;52.710;6.502;2023-05-27T09:15:03;26.90;69.50
52555;DHT22;38455;52.710;6.502;2023-05-27T09:17:30;27.10;71.10
52555;DHT22;38455;52.710;6.502;2023-05-27T09:19:55;26.90;69.50
52555;DHT22;38455;52.710;6.502;2023-05-27T09:22:31;26.90;69.10
52555;DHT22;38455;52.710;6.502;2023-05-27T09:24:57;26.80;68.10
52555;DHT22;38455;52.710;6.502;2023-05-27T09:27:26;26.50;69.70
52555;DHT22;38455;52.710;6.502;2023-05-27T09:29:53;26.10;69.70
52555;DHT22;38455;52.710;6.502;2023-05-27T09:32:27;26.70;70.60
52555;DHT22;38455;52.710;6.502;2023-05-27T09:34:54;26.80;69.20
52555;DHT22;38455;52.710;6.502;2023-05-27T09:37:25;26.40;68.70
52555;DHT22;38455;52.710;6.502;2023-05-27T09:39:51;26.30;68.70
52555;DHT22;38455;52.710;6.502;2023-05-27T09:42:17;26.50;67.80
52555;DHT22;38455;52.710;6.502;2023-05-27T09:44:46;26.70;67.60
52555;DHT22;38455;52.710;6.502;2023-05-27T09:47:18;27.20;67.40
52555;DHT22;38455;52.710;6.502;2023-05-27T09:49:47;27.40;67.70
52555;DHT22;38455;52.710;6.502;2023-05-27T09:52:14;27.20;66.90
52555;DHT22;38455;52.710;6.502;2023-05-27T09:54:43;27.10;66.60
52555;DHT22;38455;52.710;6.502;2023-05-27T09:57:10;27.00;67.10
52555;DHT22;38455;52.710;6.502;2023-05-27T09:59:37;27.60;66.30
52555;DHT22;38455;52.710;6.502;2023-05-27T10:02:04;27.40;64.50
52555;DHT22;38455;52.710;6.502;2023-05-27T10:04:32;27.40;65.50
52555;DHT22;38455;52.710;6.502;2023-05-27T10:06:59;27.30;64.70
52555;DHT22;38455;52.710;6.502;2023-05-27T10:09:24;27.40;64.30
52555;DHT22;38455;52.710;6.502;2023-05-27T10:11:52;27.60;64.50
52555;DHT22;38455;52.710;6.502;2023-05-27T10:14:18;27.60;64.10
52555;DHT22;38455;52.710;6.502;2023-05-27T10:16:55;28.00;64.70
52555;DHT22;38455;52.710;6.502;2023-05-27T10:19:21;28.10;62.00
52555;DHT22;38455;52.710;6.502;2023-05-27T10:21:47;27.80;62.70
52555;DHT22;38455;52.710;6.502;2023-05-27T10:24:13;27.60;62.70
52555;DHT22;38455;52.710;6.502;2023-05-27T10:26:40;27.30;63.40
52555;DHT22;38455;52.710;6.502;2023-05-27T10:29:07;27.30;64.20
52555;DHT22;38455;52.710;6.502;2023-05-27T10:31:33;27.80;63.60
52555;DHT22;38455;52.710;6.502;2023-05-27T10:33:59;27.70;62.30
52555;DHT22;38455;52.710;6.502;2023-05-27T10:36:28;28.00;64.20
52555;DHT22;38455;52.710;6.502;2023-05-27T10:39:05;28.10;63.20
52555;DHT22;38455;52.710;6.502;2023-05-27T10:41:54;28.20;63.00
52555;DHT22;38455;52.710;6.502;2023-05-27T10:44:36;28.90;62.30
52555;DHT22;38455;52.710;6.502;2023-05-27T10:47:12;29.00;62.30
52555;DHT22;38455;52.710;6.502;2023-05-27T10:49:45;28.70;61.60
52555;DHT22;38455;52.710;6.502;2023-05-27T10:52:14;28.50;62.00
52555;DHT22;38455;52.710;6.502;2023-05-27T10:54:45;28.60;63.00
52555;DHT22;38455;52.710;6.502;2023-05-27T10:57:16;29.00;62.50
52555;DHT22;38455;52.710;6.502;2023-05-27T10:59:50;28.50;61.60
52555;DHT22;38455;52.710;6.502;2023-05-27T11:02:17;28.60;62.20
52555;DHT22;38455;52.710;6.502;2023-05-27T11:04:43;28.50;62.90
52555;DHT22;38455;52.710;6.502;2023-05-27T11:07:08;28.50;62.80
52555;DHT22;38455;52.710;6.502;2023-05-27T11:09:44;28.70;61.30
52555;DHT22;38455;52.710;6.502;2023-05-27T11:12:14;28.80;60.70
52555;DHT22;38455;52.710;6.502;2023-05-27T11:14:50;29.20;62.30
52555;DHT22;38455;52.710;6.502;2023-05-27T11:17:17;28.40;60.00
52555;DHT22;38455;52.710;6.502;2023-05-27T11:19:43;28.50;61.10
52555;DHT22;38455;52.710;6.502;2023-05-27T11:22:11;28.50;60.50
52555;DHT22;38455;52.710;6.502;2023-05-27T11:24:38;28.90;60.50
52555;DHT22;38455;52.710;6.502;2023-05-27T11:27:11;28.40;60.40
52555;DHT22;38455;52.710;6.502;2023-05-27T11:29:37;28.90;60.90
52555;DHT22;38455;52.710;6.502;2023-05-27T11:32:06;29.20;60.20
52555;DHT22;38455;52.710;6.502;2023-05-27T11:34:36;29.00;59.80
52555;DHT22;38455;52.710;6.502;2023-05-27T11:37:04;29.00;58.60
52555;DHT22;38455;52.710;6.502;2023-05-27T11:39:31;29.00;59.40
52555;DHT22;38455;52.710;6.502;2023-05-27T11:41:57;28.80;59.70
52555;DHT22;38455;52.710;6.502;2023-05-27T11:44:24;29.40;59.10
52555;DHT22;38455;52.710;6.502;2023-05-27T11:46:52;29.60;58.20
52555;DHT22;38455;52.710;6.502;2023-05-27T11:49:22;29.80;58.10
52555;DHT22;38455;52.710;6.502;2023-05-27T11:51:54;29.90;58.20
52555;DHT22;38455;52.710;6.502;2023-05-27T11:54:28;30.00;57.60
52555;DHT22;38455;52.710;6.502;2023-05-27T11:56:56;29.90;57.60
52555;DHT22;38455;52.710;6.502;2023-05-27T11:59:23;29.60;57.70
52555;DHT22;38455;52.710;6.502;2023-05-27T12:01:49;29.20;58.00
52555;DHT22;38455;52.710;6.502;2023-05-27T12:04:15;29.10;58.90
52555;DHT22;38455;52.710;6.502;2023-05-27T12:06:42;29.70;58.60
52555;DHT22;38455;52.710;6.502;2023-05-27T12:09:08;29.30;57.10
52555;DHT22;38455;52.710;6.502;2023-05-27T12:11:34;29.20;56.90
52555;DHT22;38455;52.710;6.502;2023-05-27T12:14:00;29.20;59.00
52555;DHT22;38455;52.710;6.502;2023-05-27T12:16:26;29.30;60.20
52555;DHT22;38455;52.710;6.502;2023-05-27T12:18:52;29.50;59.20
52555;DHT22;38455;52.710;6.502;2023-05-27T12:21:18;29.50;58.80
52555;DHT22;38455;52.710;6.502;2023-05-27T12:23:45;29.80;57.60
52555;DHT22;38455;52.710;6.502;2023-05-27T12:26:12;29.60;56.00
52555;DHT22;38455;52.710;6.502;2023-05-27T12:28:38;29.60;57.10
52555;DHT22;38455;52.710;6.502;2023-05-27T12:31:04;29.30;56.20
52555;DHT22;38455;52.710;6.502;2023-05-27T12:33:30;29.50;58.00
52555;DHT22;38455;52.710;6.502;2023-05-27T12:35:57;29.50;56.80
52555;DHT22;38455;52.710;6.502;2023-05-27T12:38:23;29.00;56.40
52555;DHT22;38455;52.710;6.502;2023-05-27T12:40:49;29.00;57.10
52555;DHT22;38455;52.710;6.502;2023-05-27T12:43:18;29.40;56.50
52555;DHT22;38455;52.710;6.502;2023-05-27T12:45:44;29.00;56.20
52555;DHT22;38455;52.710;6.502;2023-05-27T12:48:11;29.00;56.60
52555;DHT22;38455;52.710;6.502;2023-05-27T12:50:37;28.90;56.70
52555;DHT22;38455;52.710;6.502;2023-05-27T12:53:02;28.90;55.80
52555;DHT22;38455;52.710;6.502;2023-05-27T12:55:28;28.90;56.00
52555;DHT22;38455;52.710;6.502;2023-05-27T12:57:55;28.70;56.60
52555;DHT22;38455;52.710;6.502;2023-05-27T13:00:21;28.20;56.80
52555;DHT22;38455;52.710;6.502;2023-05-27T13:02:47;28.40;56.60
52555;DHT22;38455;52.710;6.502;2023-05-27T13:05:14;28.30;56.10
52555;DHT22;38455;52.710;6.502;2023-05-27T13:07:40;28.60;56.20
52555;DHT22;38455;52.710;6.502;2023-05-27T13:10:17;28.20;56.10
52555;DHT22;38455;52.710;6.502;2023-05-27T13:12:46;28.20;56.50
52555;DHT22;38455;52.710;6.502;2023-05-27T13:15:12;28.00;56.70
52555;DHT22;38455;52.710;6.502;2023-05-27T13:17:38;27.70;58.70
52555;DHT22;38455;52.710;6.502;2023-05-27T13:20:04;27.80;58.30
52555;DHT22;38455;52.710;6.502;2023-05-27T13:22:30;27.50;58.30
52555;DHT22;38455;52.710;6.502;2023-05-27T13:24:55;27.40;59.00
52555;DHT22;38455;52.710;6.502;2023-05-27T13:27:21;27.20;58.70
52555;DHT22;38455;52.710;6.502;2023-05-27T13:29:47;27.30;58.90
52555;DHT22;38455;52.710;6.502;2023-05-27T13:32:13;27.00;58.70
52555;DHT22;38455;52.710;6.502;2023-05-27T13:34:38;27.20;58.30
52555;DHT22;38455;52.710;6.502;2023-05-27T13:37:04;27.30;58.80
52555;DHT22;38455;52.710;6.502;2023-05-27T13:39:30;27.00;58.70
52555;DHT22;38455;52.710;6.502;2023-05-27T13:41:56;26.80;58.70
52555;DHT22;38455;52.710;6.502;2023-05-27T13:44:22;26.80;59.80
52555;DHT22;38455;52.710;6.502;2023-05-27T13:46:48;26.40;59.00
52555;DHT22;38455;52.710;6.502;2023-05-27T13:49:14;26.40;59.30
52555;DHT22;38455;52.710;6.502;2023-05-27T13:51:44;26.20;59.70
52555;DHT22;38455;52.710;6.502;2023-05-27T13:54:10;25.80;60.00
52555;DHT22;38455;52.710;6.502;2023-05-27T13:56:36;26.00;60.10
52555;DHT22;38455;52.710;6.502;2023-05-27T13:59:01;26.00;61.70
52555;DHT22;38455;52.710;6.502;2023-05-27T14:01:29;25.90;60.60
52555;DHT22;38455;52.710;6.502;2023-05-27T14:03:55;25.60;60.50
52555;DHT22;38455;52.710;6.502;2023-05-27T14:06:20;25.30;60.40
52555;DHT22;38455;52.710;6.502;2023-05-27T14:08:46;25.20;60.50
52555;DHT22;38455;52.710;6.502;2023-05-27T14:11:12;25.40;61.00
52555;DHT22;38455;52.710;6.502;2023-05-27T14:13:37;25.40;61.70
52555;DHT22;38455;52.710;6.502;2023-05-27T14:16:03;25.10;60.50
52555;DHT22;38455;52.710;6.502;2023-05-27T14:18:29;25.40;60.50
52555;DHT22;38455;52.710;6.502;2023-05-27T14:20:54;25.30;61.80
52555;DHT22;38455;52.710;6.502;2023-05-27T14:23:20;25.30;63.00
52555;DHT22;38455;52.710;6.502;2023-05-27T14:25:45;25.20;63.70
52555;DHT22;38455;52.710;6.502;2023-05-27T14:28:11;25.20;64.20
52555;DHT22;38455;52.710;6.502;2023-05-27T14:30:37;25.30;64.50
52555;DHT22;38455;52.710;6.502;2023-05-27T14:33:05;25.50;64.70
52555;DHT22;38455;52.710;6.502;2023-05-27T14:35:37;25.40;64.40
52555;DHT22;38455;52.710;6.502;2023-05-27T14:38:04;25.10;61.80
52555;DHT22;38455;52.710;6.502;2023-05-27T14:40:30;25.00;61.80
52555;DHT22;38455;52.710;6.502;2023-05-27T14:42:56;24.90;62.80
52555;DHT22;38455;52.710;6.502;2023-05-27T14:45:22;24.80;63.10
52555;DHT22;38455;52.710;6.502;2023-05-27T14:47:51;24.80;62.30
52555;DHT22;38455;52.710;6.502;2023-05-27T14:50:22;24.80;62.90
52555;DHT22;38455;52.710;6.502;2023-05-27T14:52:51;24.60;63.10
52555;DHT22;38455;52.710;6.502;2023-05-27T14:55:17;24.60;62.70
52555;DHT22;38455;52.710;6.502;2023-05-27T14:57:43;24.60;63.00
52555;DHT22;38455;52.710;6.502;2023-05-27T15:00:08;24.40;62.50
52555;DHT22;38455;52.710;6.502;2023-05-27T15:02:35;24.30;62.00
52555;DHT22;38455;52.710;6.502;2023-05-27T15:05:05;24.30;61.70
52555;DHT22;38455;52.710;6.502;2023-05-27T15:07:35;24.30;61.80
52555;DHT22;38455;52.710;6.502;2023-05-27T15:10:02;24.40;62.30
52555;DHT22;38455;52.710;6.502;2023-05-27T15:12:41;24.30;62.20
52555;DHT22;38455;52.710;6.502;2023-05-27T15:15:10;24.40;62.30
52555;DHT22;38455;52.710;6.502;2023-05-27T15:17:36;24.40;63.00
52555;DHT22;38455;52.710;6.502;2023-05-27T15:20:05;24.30;62.50
52555;DHT22;38455;52.710;6.502;2023-05-27T15:22:31;24.30;61.60
52555;DHT22;38455;52.710;6.502;2023-05-27T15:24:57;24.10;61.50
52555;DHT22;38455;52.710;6.502;2023-05-27T15:27:23;24.00;61.50
52555;DHT22;38455;52.710;6.502;2023-05-27T15:29:49;24.00;61.70
52555;DHT22;38455;52.710;6.502;2023-05-27T15:32:15;24.00;62.00